Time;durP1;ratioP1;P1;durP2;ratioP2;P2;SDS_P1;SDS_P2;PMS_P1;PMS_P2;Temp;Humidity;BMP_temperature;BMP_pressure;BME280_temperature;BME280_humidity;BME280_pressure;Samples;Min_cycle;Max_cycle;Signal;HPM_P1;HPM_P2
2022/10/07 00:00:26;;;;;;;11.50;4.00;;;;;;;;;;5039842;28;20206;-68
2022/10/07 00:02:51;;;;;;;11.15;4.05;;;;;;;;;;5039388;28;20228;-68
2022/10/07 00:05:17;;;;;;;10.00;4.10;;;;;;;;;;5050789;28;20205;-68
2022/10/07 00:07:42;;;;;;;12.05;4.43;;;;;;;;;;5037955;28;20181;-66
2022/10/07 00:10:08;;;;;;;11.70;4.18;;;;;;;;;;5037237;28;20170;-68
2022/10/07 00:12:33;;;;;;;11.50;3.83;;;;;;;;;;5040861;28;20279;-67
2022/10/07 00:15:00;;;;;;;10.40;3.67;;;;;;;;;;5042406;28;20247;-68
2022/10/07 00:17:26;;;;;;;6.35;3.00;;;;;;;;;;5040193;28;20638;-68
2022/10/07 00:19:51;;;;;;;12.20;3.28;;;;;;;;;;5032182;28;20296;-68
2022/10/07 00:22:16;;;;;;;9.80;3.35;;;;;;;;;;5040136;28;20272;-68
2022/10/07 00:24:42;;;;;;;12.35;3.97;;;;;;;;;;5033075;28;20201;-68
2022/10/07 00:27:07;;;;;;;9.30;3.85;;;;;;;;;;5031880;28;20213;-68
2022/10/07 00:29:32;;;;;;;9.23;4.22;;;;;;;;;;5036885;28;20171;-68
2022/10/07 00:31:58;;;;;;;13.40;3.95;;;;;;;;;;5020039;28;20214;-68
2022/10/07 00:34:23;;;;;;;14.27;5.03;;;;;;;;;;5010375;28;20178;-68
2022/10/07 00:36:51;;;;;;;13.88;4.40;;;;;;;;;;5022962;28;20190;-67
2022/10/07 00:39:17;;;;;;;15.60;3.72;;;;;;;;;;5017721;28;20205;-67
2022/10/07 00:41:49;;;;;;;16.45;4.13;;;;;;;;;;5022225;28;20241;-67
2022/10/07 00:44:30;;;;;;;10.57;3.33;;;;;;;;;;5013986;28;20230;-67
2022/10/07 00:47:14;;;;;;;11.57;3.55;;;;;;;;;;5011442;28;20593;-67
2022/10/07 00:49:45;;;;;;;12.82;4.15;;;;;;;;;;5018589;28;20178;-67
2022/10/07 00:52:13;;;;;;;12.82;3.30;;;;;;;;;;5012141;28;20214;-68
2022/10/07 00:54:39;;;;;;;11.25;4.00;;;;;;;;;;5020560;28;20232;-67
2022/10/07 00:57:04;;;;;;;13.95;4.18;;;;;;;;;;5019415;28;20193;-67
2022/10/07 00:59:30;;;;;;;16.83;4.78;;;;;;;;;;5019366;28;20205;-66
2022/10/07 01:01:55;;;;;;;12.93;4.47;;;;;;;;;;5020704;28;20205;-67
2022/10/07 01:04:21;;;;;;;14.32;4.53;;;;;;;;;;5011993;28;20209;-66
2022/10/07 01:06:46;;;;;;;13.13;4.97;;;;;;;;;;5009791;28;20214;-67
2022/10/07 01:09:13;;;;;;;12.68;4.07;;;;;;;;;;5017693;28;20182;-67
2022/10/07 01:12:05;;;;;;;13.82;4.13;;;;;;;;;;5012008;28;20187;-66
2022/10/07 01:14:58;;;;;;;10.60;4.50;;;;;;;;;;5015293;28;20716;-66
2022/10/07 01:17:58;;;;;;;20.15;5.25;;;;;;;;;;5012395;28;20548;-67
2022/10/07 01:20:48;;;;;;;12.48;3.67;;;;;;;;;;5026360;28;20177;-67
2022/10/07 01:23:23;;;;;;;12.10;4.13;;;;;;;;;;5019645;28;20176;-68
2022/10/07 01:26:13;;;;;;;10.75;4.75;;;;;;;;;;5017129;28;20197;-68
2022/10/07 01:29:13;;;;;;;21.00;5.38;;;;;;;;;;5021378;28;20178;-68
2022/10/07 01:31:44;;;;;;;11.25;3.92;;;;;;;;;;4997091;28;20714;-68
2022/10/07 01:34:13;;;;;;;11.48;4.18;;;;;;;;;;4998372;28;20178;-68
2022/10/07 01:36:40;;;;;;;17.02;5.10;;;;;;;;;;5000647;28;20191;-68
2022/10/07 01:39:12;;;;;;;12.98;4.50;;;;;;;;;;4998534;28;20206;-68
2022/10/07 01:41:39;;;;;;;11.03;4.93;;;;;;;;;;4989897;28;20184;-68
2022/10/07 01:44:06;;;;;;;13.37;4.33;;;;;;;;;;4993646;28;20643;-68
2022/10/07 01:46:36;;;;;;;11.90;4.57;;;;;;;;;;5008442;28;20179;-68
2022/10/07 01:49:02;;;;;;;10.80;4.27;;;;;;;;;;4996249;28;20172;-69
2022/10/07 01:51:37;;;;;;;18.00;5.10;;;;;;;;;;4996798;28;20179;-67
2022/10/07 01:54:28;;;;;;;10.40;4.28;;;;;;;;;;4994538;28;20201;-66
2022/10/07 01:57:11;;;;;;;10.93;4.30;;;;;;;;;;4992982;28;20306;-66
2022/10/07 01:59:49;;;;;;;12.47;4.87;;;;;;;;;;4996871;28;20658;-67
2022/10/07 02:02:40;;;;;;;14.53;4.60;;;;;;;;;;4996333;28;20187;-68
2022/10/07 02:05:14;;;;;;;13.90;4.30;;;;;;;;;;5006408;28;20179;-66
2022/10/07 02:07:58;;;;;;;11.45;4.05;;;;;;;;;;5003283;28;20249;-66
2022/10/07 02:10:30;;;;;;;12.57;3.70;;;;;;;;;;4989581;28;20180;-65
2022/10/07 02:13:22;;;;;;;10.10;3.70;;;;;;;;;;4990405;28;20180;-66
2022/10/07 02:15:54;;;;;;;16.90;4.47;;;;;;;;;;4990020;28;20236;-66
2022/10/07 02:18:20;;;;;;;12.50;4.40;;;;;;;;;;5003287;28;20535;-66
2022/10/07 02:20:48;;;;;;;17.10;4.37;;;;;;;;;;4996781;28;20180;-66
2022/10/07 02:23:16;;;;;;;17.55;4.82;;;;;;;;;;4989088;28;20225;-66
2022/10/07 02:25:46;;;;;;;15.53;4.90;;;;;;;;;;5002012;28;20209;-66
2022/10/07 02:28:14;;;;;;;16.77;4.38;;;;;;;;;;5000734;28;20533;-66
2022/10/07 02:30:42;;;;;;;12.32;4.63;;;;;;;;;;5013938;28;20217;-68
2022/10/07 02:33:09;;;;;;;18.40;5.05;;;;;;;;;;5039822;28;20658;-66
2022/10/07 02:35:53;;;;;;;16.58;5.00;;;;;;;;;;5035330;28;20177;-66
2022/10/07 02:38:19;;;;;;;13.57;4.67;;;;;;;;;;5032117;28;20713;-66
2022/10/07 02:41:12;;;;;;;14.27;4.10;;;;;;;;;;5037841;28;20185;-65
2022/10/07 02:43:55;;;;;;;12.93;4.40;;;;;;;;;;5037216;28;20185;-67
2022/10/07 02:46:25;;;;;;;16.43;4.50;;;;;;;;;;5037529;28;20288;-66
2022/10/07 02:49:01;;;;;;;14.10;4.73;;;;;;;;;;5034553;28;20207;-66
2022/10/07 02:51:32;;;;;;;13.87;4.40;;;;;;;;;;5042026;28;20236;-66
2022/10/07 02:54:01;;;;;;;14.45;4.50;;;;;;;;;;5035673;28;20177;-67
2022/10/07 02:56:28;;;;;;;16.92;4.32;;;;;;;;;;5027786;28;20201;-68
2022/10/07 02:58:54;;;;;;;18.37;4.60;;;;;;;;;;5035168;28;20202;-67
2022/10/07 03:01:25;;;;;;;10.40;3.97;;;;;;;;;;5034015;28;20181;-66
2022/10/07 03:03:50;;;;;;;14.95;4.78;;;;;;;;;;5035441;28;20182;-65
2022/10/07 03:06:18;;;;;;;14.70;4.63;;;;;;;;;;5041174;28;20197;-66
2022/10/07 03:08:45;;;;;;;17.50;3.90;;;;;;;;;;5032811;28;20197;-66
2022/10/07 03:11:10;;;;;;;14.68;4.70;;;;;;;;;;5037410;28;20174;-66
2022/10/07 03:13:35;;;;;;;10.27;4.32;;;;;;;;;;5031489;28;20180;-67
2022/10/07 03:16:04;;;;;;;13.23;4.88;;;;;;;;;;5044240;28;20189;-66
2022/10/07 03:18:30;;;;;;;12.43;4.22;;;;;;;;;;5041928;28;20205;-67
2022/10/07 03:20:56;;;;;;;19.58;4.43;;;;;;;;;;5045695;28;20182;-67
2022/10/07 03:23:23;;;;;;;14.67;4.13;;;;;;;;;;5030862;28;20255;-65
2022/10/07 03:25:53;;;;;;;13.45;4.50;;;;;;;;;;5031890;28;20265;-66
2022/10/07 03:28:20;;;;;;;17.45;5.10;;;;;;;;;;5031780;28;20163;-65
2022/10/07 03:30:46;;;;;;;11.60;4.63;;;;;;;;;;5032309;28;20313;-68
2022/10/07 03:33:13;;;;;;;14.07;5.35;;;;;;;;;;5039473;28;20212;-67
2022/10/07 03:35:38;;;;;;;16.70;5.38;;;;;;;;;;5040185;28;20623;-67
2022/10/07 03:38:07;;;;;;;17.88;5.07;;;;;;;;;;5032250;28;20225;-67
2022/10/07 03:40:39;;;;;;;18.52;5.18;;;;;;;;;;5037775;28;20653;-67
2022/10/07 03:43:06;;;;;;;14.52;5.18;;;;;;;;;;5042030;28;20174;-67
2022/10/07 03:45:32;;;;;;;16.67;4.70;;;;;;;;;;5033699;28;20174;-67
2022/10/07 03:47:57;;;;;;;16.33;4.65;;;;;;;;;;5034209;28;20181;-68
2022/10/07 03:50:24;;;;;;;15.13;4.88;;;;;;;;;;5036139;28;20187;-67
2022/10/07 03:52:49;;;;;;;16.20;5.32;;;;;;;;;;5033449;28;20262;-67
2022/10/07 03:55:15;;;;;;;16.80;5.70;;;;;;;;;;5045708;28;20174;-67
2022/10/07 03:57:51;;;;;;;15.32;4.40;;;;;;;;;;5039419;28;20196;-67
2022/10/07 04:00:19;;;;;;;12.38;5.15;;;;;;;;;;5043220;28;20274;-67
2022/10/07 04:02:46;;;;;;;11.05;4.28;;;;;;;;;;5033011;28;20260;-67
2022/10/07 04:05:11;;;;;;;14.45;4.68;;;;;;;;;;5047868;28;20246;-67
2022/10/07 04:07:37;;;;;;;19.58;4.53;;;;;;;;;;5034942;28;20186;-67
2022/10/07 04:10:02;;;;;;;13.35;4.28;;;;;;;;;;5032950;28;20185;-67
2022/10/07 04:12:32;;;;;;;16.42;5.50;;;;;;;;;;5034490;28;20205;-67
2022/10/07 04:14:57;;;;;;;17.88;4.53;;;;;;;;;;5036426;28;20205;-67
2022/10/07 04:17:23;;;;;;;12.43;4.80;;;;;;;;;;5032784;28;20232;-67
2022/10/07 04:19:48;;;;;;;16.02;5.28;;;;;;;;;;5029073;28;20208;-68
2022/10/07 04:22:14;;;;;;;17.17;5.35;;;;;;;;;;5035939;28;20542;-67
2022/10/07 04:24:39;;;;;;;17.17;5.32;;;;;;;;;;5035029;28;20190;-67
2022/10/07 04:27:04;;;;;;;15.65;4.15;;;;;;;;;;5032524;28;20268;-67
2022/10/07 04:29:30;;;;;;;16.73;5.10;;;;;;;;;;5041566;28;20286;-67
2022/10/07 04:31:57;;;;;;;16.70;4.90;;;;;;;;;;5030378;28;20566;-67
2022/10/07 04:34:23;;;;;;;15.93;5.00;;;;;;;;;;5040708;28;20189;-67
2022/10/07 04:36:48;;;;;;;16.52;4.85;;;;;;;;;;5033282;28;20665;-67
2022/10/07 04:39:14;;;;;;;14.50;4.63;;;;;;;;;;5044732;28;20340;-67
2022/10/07 04:41:39;;;;;;;20.37;5.20;;;;;;;;;;5036385;28;20182;-67
2022/10/07 04:44:05;;;;;;;21.88;5.38;;;;;;;;;;5036545;28;20340;-67
2022/10/07 04:46:31;;;;;;;20.40;4.75;;;;;;;;;;5035163;28;20257;-67
2022/10/07 04:48:56;;;;;;;21.53;5.77;;;;;;;;;;5037150;28;20664;-67
2022/10/07 04:51:22;;;;;;;19.67;5.68;;;;;;;;;;5036968;28;20174;-67
2022/10/07 04:53:51;;;;;;;18.23;4.78;;;;;;;;;;5034456;28;20590;-67
2022/10/07 04:56:18;;;;;;;17.50;6.13;;;;;;;;;;5033373;28;20174;-67
2022/10/07 04:58:44;;;;;;;18.65;6.18;;;;;;;;;;5034394;28;20202;-67
2022/10/07 05:01:10;;;;;;;16.38;5.38;;;;;;;;;;5036025;28;20269;-67
2022/10/07 05:03:37;;;;;;;18.00;5.40;;;;;;;;;;5047244;28;20197;-67
2022/10/07 05:06:03;;;;;;;18.98;5.53;;;;;;;;;;5039815;28;20201;-67
2022/10/07 05:08:28;;;;;;;18.75;6.03;;;;;;;;;;5029922;28;20693;-67
2022/10/07 05:10:55;;;;;;;18.30;6.93;;;;;;;;;;5042197;28;20177;-67
2022/10/07 05:13:23;;;;;;;13.40;5.30;;;;;;;;;;5047976;28;20186;-67
2022/10/07 05:15:54;;;;;;;17.65;5.75;;;;;;;;;;5049153;28;20292;-67
2022/10/07 05:18:20;;;;;;;24.83;6.40;;;;;;;;;;5034413;28;20213;-66
2022/10/07 05:20:47;;;;;;;16.10;5.13;;;;;;;;;;5032425;28;20188;-67
2022/10/07 05:23:17;;;;;;;19.20;5.77;;;;;;;;;;5029583;28;20240;-67
2022/10/07 05:25:43;;;;;;;19.10;5.97;;;;;;;;;;5031057;28;20673;-67
2022/10/07 05:28:10;;;;;;;18.15;6.15;;;;;;;;;;5031498;28;20236;-67
2022/10/07 05:30:36;;;;;;;20.00;6.30;;;;;;;;;;5045366;28;20302;-66
2022/10/07 05:33:01;;;;;;;15.25;5.60;;;;;;;;;;5041092;28;20198;-66
2022/10/07 05:35:27;;;;;;;17.17;6.38;;;;;;;;;;5026888;28;20182;-67
2022/10/07 05:37:52;;;;;;;18.25;5.47;;;;;;;;;;5028980;28;20268;-67
2022/10/07 05:40:18;;;;;;;17.33;5.70;;;;;;;;;;5029092;28;20540;-66
2022/10/07 05:42:44;;;;;;;14.87;5.43;;;;;;;;;;5028943;28;20202;-66
2022/10/07 05:45:09;;;;;;;22.90;5.60;;;;;;;;;;5031084;28;20208;-67
2022/10/07 05:47:35;;;;;;;19.95;5.53;;;;;;;;;;5033720;28;20181;-67
2022/10/07 05:50:00;;;;;;;21.80;5.87;;;;;;;;;;5032789;28;20178;-67
2022/10/07 05:52:26;;;;;;;20.05;5.82;;;;;;;;;;5033379;28;20181;-66
2022/10/07 05:54:51;;;;;;;20.23;5.60;;;;;;;;;;5031062;28;20196;-67
2022/10/07 05:57:16;;;;;;;17.98;5.47;;;;;;;;;;5030989;28;20186;-67
2022/10/07 05:59:43;;;;;;;31.73;8.68;;;;;;;;;;5032478;28;20197;-67
2022/10/07 06:02:18;;;;;;;19.58;5.40;;;;;;;;;;5033383;28;20185;-67
2022/10/07 06:04:45;;;;;;;19.10;5.18;;;;;;;;;;5038689;28;20250;-67
2022/10/07 06:07:11;;;;;;;15.35;5.45;;;;;;;;;;5032544;28;20185;-67
2022/10/07 06:15:05;;;;;;;18.73;5.20;;;;;;;;;;5027600;28;20213;-67
2022/10/07 06:17:31;;;;;;;14.07;5.22;;;;;;;;;;5035529;28;20185;-67
2022/10/07 06:19:56;;;;;;;17.95;5.25;;;;;;;;;;5043590;28;20356;-67
2022/10/07 06:22:22;;;;;;;15.60;4.95;;;;;;;;;;5045941;28;20181;-67
2022/10/07 06:24:47;;;;;;;17.83;4.80;;;;;;;;;;5034840;28;20192;-67
2022/10/07 06:27:12;;;;;;;12.80;4.43;;;;;;;;;;5040557;28;20696;-67
2022/10/07 06:29:38;;;;;;;25.67;5.53;;;;;;;;;;5045567;28;20184;-67
2022/10/07 06:32:04;;;;;;;18.88;5.03;;;;;;;;;;5034803;28;20239;-67
2022/10/07 06:34:29;;;;;;;21.73;4.63;;;;;;;;;;5041002;28;20178;-67
2022/10/07 06:36:54;;;;;;;16.20;5.33;;;;;;;;;;5035195;28;20275;-66
2022/10/07 06:39:20;;;;;;;18.00;5.35;;;;;;;;;;5034979;28;20335;-67
2022/10/07 06:41:45;;;;;;;15.63;4.22;;;;;;;;;;5032451;28;20267;-67
2022/10/07 06:44:10;;;;;;;15.15;4.45;;;;;;;;;;5036327;28;20659;-67
2022/10/07 06:46:36;;;;;;;21.65;5.35;;;;;;;;;;5034580;28;20724;-67
2022/10/07 06:49:01;;;;;;;18.67;4.32;;;;;;;;;;5036654;28;20182;-67
2022/10/07 06:51:26;;;;;;;20.23;3.97;;;;;;;;;;5038649;28;20184;-67
2022/10/07 06:53:53;;;;;;;16.55;4.22;;;;;;;;;;5037244;28;20182;-67
2022/10/07 06:56:19;;;;;;;16.15;4.47;;;;;;;;;;5034880;28;20231;-67
2022/10/07 06:58:45;;;;;;;18.45;5.13;;;;;;;;;;5040155;28;20302;-67
2022/10/07 07:01:11;;;;;;;13.43;3.67;;;;;;;;;;5034269;28;20265;-67
2022/10/07 07:03:37;;;;;;;20.33;3.58;;;;;;;;;;5038647;28;20656;-67
2022/10/07 07:06:02;;;;;;;11.65;4.18;;;;;;;;;;5040848;28;20189;-67
2022/10/07 07:08:30;;;;;;;23.52;4.60;;;;;;;;;;5035286;28;20181;-67
2022/10/07 07:11:02;;;;;;;13.85;4.13;;;;;;;;;;5039742;28;20652;-67
2022/10/07 07:13:27;;;;;;;16.98;4.30;;;;;;;;;;5037453;28;20174;-67
2022/10/07 07:15:57;;;;;;;18.55;3.95;;;;;;;;;;5032559;28;20340;-67
2022/10/07 07:18:23;;;;;;;23.30;4.90;;;;;;;;;;5034422;28;20193;-67
2022/10/07 07:20:48;;;;;;;16.20;3.78;;;;;;;;;;5035888;28;20692;-67
2022/10/07 07:23:14;;;;;;;17.52;3.90;;;;;;;;;;5034479;28;20174;-67
2022/10/07 07:25:44;;;;;;;19.13;3.75;;;;;;;;;;5039551;28;20192;-67
2022/10/07 07:28:11;;;;;;;20.77;3.90;;;;;;;;;;5046368;28;20272;-67
2022/10/07 07:30:38;;;;;;;8.90;3.70;;;;;;;;;;5033543;28;20233;-67
2022/10/07 07:33:04;;;;;;;24.30;5.07;;;;;;;;;;5034742;28;20232;-67
2022/10/07 07:35:31;;;;;;;12.23;3.78;;;;;;;;;;5041473;28;20186;-67
2022/10/07 07:37:57;;;;;;;17.05;3.90;;;;;;;;;;5035654;28;20185;-67
2022/10/07 07:40:22;;;;;;;13.55;3.05;;;;;;;;;;5036335;28;20297;-67
2022/10/07 07:42:48;;;;;;;15.88;3.83;;;;;;;;;;5032863;28;20185;-68
2022/10/07 07:45:14;;;;;;;15.90;3.25;;;;;;;;;;5037320;28;20525;-67
2022/10/07 07:47:39;;;;;;;18.42;3.67;;;;;;;;;;5031914;28;20177;-67
2022/10/07 07:50:05;;;;;;;16.30;3.60;;;;;;;;;;5046161;28;20384;-67
2022/10/07 07:52:32;;;;;;;12.75;3.83;;;;;;;;;;5048912;28;20181;-67
2022/10/07 07:54:58;;;;;;;12.05;3.50;;;;;;;;;;5034813;28;20212;-67
2022/10/07 07:57:25;;;;;;;16.15;3.35;;;;;;;;;;5031676;28;20656;-66
2022/10/07 07:59:51;;;;;;;14.40;3.85;;;;;;;;;;5038939;28;20567;-67
2022/10/07 08:02:16;;;;;;;14.05;3.17;;;;;;;;;;5037279;28;20178;-67
2022/10/07 08:04:42;;;;;;;11.75;3.72;;;;;;;;;;5035810;28;20536;-66
2022/10/07 08:07:11;;;;;;;15.93;3.38;;;;;;;;;;5035295;28;20186;-66
2022/10/07 08:09:38;;;;;;;11.75;2.90;;;;;;;;;;5036926;28;20532;-67
2022/10/07 08:12:04;;;;;;;13.65;3.42;;;;;;;;;;5049111;28;20212;-67
2022/10/07 08:14:30;;;;;;;13.32;3.70;;;;;;;;;;5042916;28;20208;-67
2022/10/07 08:16:57;;;;;;;15.05;3.33;;;;;;;;;;5035954;28;20614;-67
2022/10/07 08:19:24;;;;;;;10.20;2.92;;;;;;;;;;5043482;28;20248;-67
2022/10/07 08:21:51;;;;;;;12.80;3.08;;;;;;;;;;5035807;28;20564;-67
2022/10/07 08:24:16;;;;;;;14.05;2.70;;;;;;;;;;5045851;28;20189;-67
2022/10/07 08:26:42;;;;;;;16.25;3.00;;;;;;;;;;5034020;28;20208;-67
2022/10/07 08:29:07;;;;;;;18.17;3.20;;;;;;;;;;5036871;28;20177;-66
2022/10/07 08:31:32;;;;;;;14.45;3.10;;;;;;;;;;5042729;28;20236;-67
2022/10/07 08:33:59;;;;;;;11.48;2.63;;;;;;;;;;5035875;28;20620;-66
2022/10/07 08:36:26;;;;;;;16.58;3.47;;;;;;;;;;5038300;28;20185;-67
2022/10/07 08:38:52;;;;;;;12.27;3.03;;;;;;;;;;5030725;28;20194;-66
2022/10/07 08:41:32;;;;;;;12.80;2.88;;;;;;;;;;5047329;28;20184;-67
2022/10/07 08:44:06;;;;;;;20.35;3.45;;;;;;;;;;5040800;28;20208;-66
2022/10/07 08:46:34;;;;;;;16.63;3.33;;;;;;;;;;5033512;28;20182;-66
2022/10/07 08:49:10;;;;;;;14.65;2.63;;;;;;;;;;5036957;28;20654;-66
2022/10/07 08:51:43;;;;;;;14.90;2.80;;;;;;;;;;5032941;28;20174;-66
2022/10/07 08:54:14;;;;;;;16.45;3.00;;;;;;;;;;5035188;28;20209;-67
2022/10/07 08:56:41;;;;;;;16.40;2.95;;;;;;;;;;5044149;28;20249;-66
2022/10/07 08:59:30;;;;;;;20.38;2.90;;;;;;;;;;5037861;28;20514;-66
2022/10/07 09:02:24;;;;;;;17.13;3.60;;;;;;;;;;5031256;28;20170;-66
2022/10/07 09:05:20;;;;;;;19.10;3.35;;;;;;;;;;5044721;28;20408;-67
2022/10/07 09:07:50;;;;;;;14.27;2.67;;;;;;;;;;5042399;28;21527;-66
2022/10/07 09:10:41;;;;;;;12.60;2.80;;;;;;;;;;5033943;28;20210;-66
2022/10/07 09:13:19;;;;;;;9.93;2.38;;;;;;;;;;5030133;28;20293;-66
2022/10/07 09:15:53;;;;;;;16.73;2.63;;;;;;;;;;5028252;28;20285;-67
2022/10/07 09:18:35;;;;;;;13.45;2.80;;;;;;;;;;5036439;28;20455;-66
2022/10/07 09:21:05;;;;;;;16.05;3.28;;;;;;;;;;5044694;28;20209;-67
2022/10/07 09:23:35;;;;;;;18.45;3.35;;;;;;;;;;5047319;28;20244;-67
2022/10/07 09:26:04;;;;;;;15.98;3.72;;;;;;;;;;5031462;28;20560;-66
2022/10/07 09:28:31;;;;;;;10.52;4.30;;;;;;;;;;5036504;28;20176;-67
2022/10/07 09:30:59;;;;;;;16.33;2.95;;;;;;;;;;5035448;28;20222;-66
2022/10/07 09:33:26;;;;;;;15.57;2.70;;;;;;;;;;5034630;28;20620;-66
2022/10/07 09:35:54;;;;;;;16.17;2.90;;;;;;;;;;5042221;28;20173;-66
2022/10/07 09:38:33;;;;;;;12.02;2.88;;;;;;;;;;5028713;28;20184;-71
2022/10/07 09:41:20;;;;;;;16.38;3.22;;;;;;;;;;5032860;28;20193;-67
2022/10/07 09:43:48;;;;;;;9.90;2.78;;;;;;;;;;5027574;28;20292;-66
2022/10/07 09:46:33;;;;;;;13.35;2.90;;;;;;;;;;5035276;28;20248;-66
2022/10/07 09:49:00;;;;;;;16.88;2.83;;;;;;;;;;5033737;28;20189;-67
2022/10/07 09:51:28;;;;;;;16.10;2.70;;;;;;;;;;5027828;28;20190;-67
2022/10/07 09:54:01;;;;;;;13.30;2.35;;;;;;;;;;5029167;28;20704;-66
2022/10/07 09:56:39;;;;;;;11.75;2.63;;;;;;;;;;5028611;28;20685;-67
2022/10/07 09:59:21;;;;;;;16.17;2.60;;;;;;;;;;5040613;28;20201;-67
2022/10/07 10:01:55;;;;;;;15.73;2.35;;;;;;;;;;5039066;28;20186;-67
2022/10/07 10:04:35;;;;;;;16.38;2.90;;;;;;;;;;5030813;28;20641;-70
2022/10/07 10:07:04;;;;;;;14.77;2.15;;;;;;;;;;5038366;28;20590;-66
2022/10/07 10:09:32;;;;;;;14.80;2.38;;;;;;;;;;5029721;28;20521;-66
2022/10/07 10:12:12;;;;;;;13.75;2.15;;;;;;;;;;5049228;28;20193;-66
2022/10/07 10:14:50;;;;;;;14.65;2.78;;;;;;;;;;5047918;28;20178;-66
2022/10/07 10:17:34;;;;;;;11.82;2.38;;;;;;;;;;5031207;28;20553;-66
2022/10/07 10:20:35;;;;;;;17.30;2.63;;;;;;;;;;5032642;28;20197;-66
2022/10/07 10:23:22;;;;;;;10.88;2.33;;;;;;;;;;5048043;28;20508;-66
2022/10/07 10:26:24;;;;;;;16.58;2.25;;;;;;;;;;5048679;28;20696;-66
2022/10/07 10:29:00;;;;;;;12.18;2.35;;;;;;;;;;5041836;28;20192;-66
2022/10/07 10:31:46;;;;;;;12.07;2.15;;;;;;;;;;5027169;28;20268;-67
2022/10/07 10:34:55;;;;;;;13.73;2.72;;;;;;;;;;5034530;28;20247;-66
2022/10/07 10:37:22;;;;;;;11.38;2.22;;;;;;;;;;5035549;28;20276;-66
2022/10/07 10:40:21;;;;;;;10.27;2.25;;;;;;;;;;5034216;28;20241;-70
2022/10/07 10:43:29;;;;;;;11.57;2.00;;;;;;;;;;5028001;28;20271;-67
2022/10/07 10:46:19;;;;;;;11.63;2.35;;;;;;;;;;5029480;28;20204;-67
2022/10/07 10:48:58;;;;;;;14.95;2.47;;;;;;;;;;5037707;28;20178;-67
2022/10/07 10:51:33;;;;;;;11.88;2.53;;;;;;;;;;5031966;28;20567;-66
2022/10/07 10:54:10;;;;;;;11.80;2.25;;;;;;;;;;5036834;28;20185;-66
2022/10/07 10:57:04;;;;;;;10.65;2.10;;;;;;;;;;5042276;28;20181;-67
2022/10/07 10:59:57;;;;;;;8.02;2.10;;;;;;;;;;5027066;28;20209;-70
2022/10/07 11:02:36;;;;;;;9.63;2.05;;;;;;;;;;5033479;28;20180;-66
2022/10/07 11:05:13;;;;;;;11.13;1.92;;;;;;;;;;5047783;28;20222;-67
2022/10/07 11:07:44;;;;;;;11.10;2.72;;;;;;;;;;5033235;28;20190;-66
2022/10/07 11:10:48;;;;;;;9.10;2.17;;;;;;;;;;5028117;28;20273;-67
2022/10/07 11:13:26;;;;;;;10.60;1.90;;;;;;;;;;5031798;28;20189;-67
2022/10/07 11:16:08;;;;;;;10.05;2.08;;;;;;;;;;5034346;28;20279;-67
2022/10/07 11:18:40;;;;;;;11.15;2.13;;;;;;;;;;5032338;28;20177;-69
2022/10/07 11:21:13;;;;;;;12.48;2.08;;;;;;;;;;5034507;28;20626;-68
2022/10/07 11:24:06;;;;;;;13.20;2.47;;;;;;;;;;5034238;28;20227;-69
2022/10/07 11:26:36;;;;;;;8.88;2.17;;;;;;;;;;5013747;28;20611;-66
2022/10/07 11:29:34;;;;;;;13.68;2.42;;;;;;;;;;5048102;28;20178;-66
2022/10/07 11:32:05;;;;;;;10.80;2.03;;;;;;;;;;5028373;28;20230;-67
2022/10/07 11:34:45;;;;;;;17.13;2.15;;;;;;;;;;5035911;28;20182;-67
2022/10/07 11:37:23;;;;;;;11.38;2.10;;;;;;;;;;5031028;28;20251;-69
2022/10/07 11:39:52;;;;;;;10.00;2.35;;;;;;;;;;5033803;28;20728;-67
2022/10/07 11:42:27;;;;;;;8.82;2.20;;;;;;;;;;5031663;28;20377;-66
2022/10/07 11:45:01;;;;;;;8.40;1.90;;;;;;;;;;5036477;28;20495;-67
2022/10/07 11:47:40;;;;;;;13.43;2.25;;;;;;;;;;5031488;28;20181;-67
2022/10/07 11:50:14;;;;;;;13.52;3.08;;;;;;;;;;5047548;28;20181;-68
2022/10/07 11:52:45;;;;;;;17.70;2.72;;;;;;;;;;5042798;28;20235;-68
2022/10/07 11:55:49;;;;;;;13.75;2.65;;;;;;;;;;5034512;28;20275;-69
2022/10/07 11:58:30;;;;;;;13.23;1.92;;;;;;;;;;5008138;28;20187;-67
2022/10/07 12:01:29;;;;;;;10.07;2.33;;;;;;;;;;5032860;28;20262;-67
2022/10/07 12:04:26;;;;;;;12.98;1.92;;;;;;;;;;5030809;28;20185;-67
2022/10/07 12:07:29;;;;;;;9.30;2.17;;;;;;;;;;5029533;28;20208;-66
2022/10/07 12:10:00;;;;;;;18.17;2.22;;;;;;;;;;5035482;28;20202;-66
2022/10/07 12:12:41;;;;;;;9.90;2.20;;;;;;;;;;5043936;28;20181;-66
2022/10/07 12:15:43;;;;;;;9.85;2.20;;;;;;;;;;5035524;28;20574;-67
2022/10/07 12:18:12;;;;;;;14.48;2.30;;;;;;;;;;5041618;28;20615;-67
2022/10/07 12:20:49;;;;;;;9.48;2.45;;;;;;;;;;5030934;28;20209;-66
2022/10/07 12:23:17;;;;;;;9.20;2.15;;;;;;;;;;5049366;28;20264;-67
2022/10/07 12:25:46;;;;;;;9.15;2.10;;;;;;;;;;5045003;28;20177;-66
2022/10/07 12:28:22;;;;;;;10.52;1.73;;;;;;;;;;5043422;28;20174;-67
2022/10/07 12:30:56;;;;;;;11.43;2.20;;;;;;;;;;5030628;28;20265;-66
2022/10/07 12:33:33;;;;;;;12.20;2.20;;;;;;;;;;5039653;28;20213;-66
2022/10/07 12:36:20;;;;;;;11.10;1.92;;;;;;;;;;5041856;28;20194;-67
2022/10/07 12:39:06;;;;;;;11.80;2.20;;;;;;;;;;5036708;28;20236;-67
2022/10/07 12:41:34;;;;;;;9.98;2.20;;;;;;;;;;5031133;28;20190;-66
2022/10/07 12:44:13;;;;;;;13.82;3.00;;;;;;;;;;5039480;28;20177;-67
2022/10/07 12:46:59;;;;;;;8.43;1.88;;;;;;;;;;5048366;28;20170;-66
2022/10/07 12:49:43;;;;;;;13.40;2.08;;;;;;;;;;5033773;28;20272;-67
2022/10/07 12:52:11;;;;;;;10.98;2.00;;;;;;;;;;5032105;28;20289;-71
2022/10/07 12:54:48;;;;;;;9.85;2.35;;;;;;;;;;5041097;28;20177;-68
2022/10/07 12:57:22;;;;;;;11.45;1.88;;;;;;;;;;5036375;28;20235;-66
2022/10/07 13:00:16;;;;;;;10.13;2.15;;;;;;;;;;5034933;28;20529;-66
2022/10/07 13:03:07;;;;;;;8.85;1.88;;;;;;;;;;5032606;28;20698;-67
2022/10/07 13:05:44;;;;;;;12.18;2.33;;;;;;;;;;5047387;28;20256;-66
2022/10/07 13:08:28;;;;;;;8.10;2.00;;;;;;;;;;5043079;28;20189;-66
2022/10/07 13:11:16;;;;;;;9.90;1.67;;;;;;;;;;5040474;28;20212;-67
2022/10/07 13:14:19;;;;;;;8.43;2.13;;;;;;;;;;5032154;28;20189;-66
2022/10/07 13:17:03;;;;;;;11.75;2.15;;;;;;;;;;5041442;28;20441;-67
2022/10/07 13:19:52;;;;;;;8.77;1.85;;;;;;;;;;5029430;28;20602;-66
2022/10/07 13:22:18;;;;;;;11.35;1.70;;;;;;;;;;5042446;28;20307;-67
2022/10/07 13:24:49;;;;;;;7.95;1.60;;;;;;;;;;5042353;28;20660;-66
2022/10/07 13:27:27;;;;;;;6.03;1.40;;;;;;;;;;5034206;28;20178;-66
2022/10/07 13:29:54;;;;;;;9.98;1.67;;;;;;;;;;5044023;28;20613;-66
2022/10/07 13:32:26;;;;;;;8.27;1.60;;;;;;;;;;5044860;28;20200;-66
2022/10/07 13:34:52;;;;;;;6.60;1.33;;;;;;;;;;5042772;28;20266;-67
2022/10/07 13:37:24;;;;;;;7.70;1.50;;;;;;;;;;5038184;28;20201;-66
2022/10/07 13:39:49;;;;;;;9.05;1.80;;;;;;;;;;5039476;28;20194;-66
2022/10/07 13:42:14;;;;;;;9.77;1.63;;;;;;;;;;5044427;28;20195;-69
2022/10/07 13:44:42;;;;;;;12.27;1.77;;;;;;;;;;5042941;28;20257;-67
2022/10/07 13:47:17;;;;;;;7.90;1.30;;;;;;;;;;5033202;28;20327;-66
2022/10/07 13:49:45;;;;;;;8.10;1.55;;;;;;;;;;5033320;28;20173;-67
2022/10/07 13:52:23;;;;;;;4.65;1.65;;;;;;;;;;5044627;28;20189;-67
2022/10/07 13:54:50;;;;;;;8.23;1.38;;;;;;;;;;5030318;28;20189;-67
2022/10/07 13:57:17;;;;;;;7.13;1.50;;;;;;;;;;5044075;28;20254;-67
2022/10/07 13:59:44;;;;;;;8.23;1.58;;;;;;;;;;5033078;28;20197;-67
2022/10/07 14:02:14;;;;;;;8.68;1.70;;;;;;;;;;5045327;28;20265;-72
2022/10/07 14:05:00;;;;;;;10.40;1.83;;;;;;;;;;5040281;28;20783;-70
2022/10/07 14:07:27;;;;;;;9.07;1.60;;;;;;;;;;5034809;28;20580;-66
2022/10/07 14:09:59;;;;;;;15.05;2.30;;;;;;;;;;5036125;28;20638;-68
2022/10/07 14:12:31;;;;;;;10.10;1.65;;;;;;;;;;5034572;28;20224;-67
2022/10/07 14:15:04;;;;;;;6.72;1.58;;;;;;;;;;5035315;28;20178;-67
2022/10/07 14:17:29;;;;;;;7.75;1.38;;;;;;;;;;5036271;28;20204;-67
2022/10/07 14:19:59;;;;;;;7.70;1.52;;;;;;;;;;5044127;28;20194;-67
2022/10/07 14:22:37;;;;;;;8.35;1.40;;;;;;;;;;5031070;28;20530;-66
2022/10/07 14:25:05;;;;;;;7.50;1.20;;;;;;;;;;5028687;28;20178;-67
2022/10/07 14:27:43;;;;;;;8.38;1.75;;;;;;;;;;5033559;28;20181;-66
2022/10/07 14:36:18;;;;;;;7.88;1.50;;;;;;;;;;5033037;28;20707;-67
2022/10/07 14:38:46;;;;;;;7.35;1.77;;;;;;;;;;5032622;28;20193;-67
2022/10/07 14:41:13;;;;;;;6.60;1.35;;;;;;;;;;5031189;28;20194;-66
2022/10/07 14:43:43;;;;;;;9.50;1.38;;;;;;;;;;5034416;28;20235;-67
2022/10/07 14:46:20;;;;;;;7.75;1.88;;;;;;;;;;5036821;28;20184;-67
2022/10/07 14:48:47;;;;;;;9.57;1.88;;;;;;;;;;5028332;28;20193;-67
2022/10/07 14:51:14;;;;;;;8.60;1.77;;;;;;;;;;5032245;28;20189;-67
2022/10/07 14:53:41;;;;;;;6.63;1.55;;;;;;;;;;5031291;28;20182;-67
2022/10/07 14:56:18;;;;;;;13.77;1.88;;;;;;;;;;5029152;28;20205;-67
2022/10/07 14:58:43;;;;;;;9.30;1.70;;;;;;;;;;5030552;28;20679;-67
2022/10/07 15:01:08;;;;;;;8.20;1.50;;;;;;;;;;5034254;28;20186;-67
2022/10/07 15:03:34;;;;;;;8.73;1.45;;;;;;;;;;5030921;28;20216;-67
2022/10/07 15:05:59;;;;;;;8.25;1.50;;;;;;;;;;5032124;28;20202;-67
2022/10/07 15:08:25;;;;;;;11.45;1.85;;;;;;;;;;5030517;28;20189;-67
2022/10/07 15:10:50;;;;;;;10.50;1.55;;;;;;;;;;5032011;28;20170;-67
2022/10/07 15:13:15;;;;;;;7.10;1.52;;;;;;;;;;5039886;28;20178;-66